Time;durP1;ratioP1;P1;durP2;ratioP2;P2;SDS_P1;SDS_P2;PMS_P1;PMS_P2;Temp;Humidity;BMP_temperature;BMP_pressure;BME280_temperature;BME280_humidity;BME280_pressure;Samples;Min_cycle;Max_cycle;Signal;HPM_P1;HPM_P2
2023/10/29 00:02:20;;;;;;;0.20;0.20;;;15.50;99.90;;;;;;5115785;28;20036;-72
2023/10/29 00:04:46;;;;;;;0.20;0.20;;;15.50;99.90;;;;;;5116056;28;20059;-74
2023/10/29 00:07:11;;;;;;;1.60;0.70;;;15.50;99.90;;;;;;5116263;28;20039;-73
2023/10/29 00:09:37;;;;;;;0.55;0.55;;;15.50;99.90;;;;;;5116178;28;20035;-72
2023/10/29 00:12:03;;;;;;;1.35;0.30;;;15.50;99.90;;;;;;5115423;28;20027;-74
2023/10/29 00:14:29;;;;;;;2.20;0.40;;;15.60;99.90;;;;;;5115889;28;20031;-72
2023/10/29 00:16:54;;;;;;;0.03;0.03;;;15.60;99.90;;;;;;5115805;28;20015;-72
2023/10/29 00:19:20;;;;;;;1.25;0.35;;;15.50;99.90;;;;;;5115888;28;20037;-74
2023/10/29 00:21:46;;;;;;;1.13;0.60;;;15.50;99.90;;;;;;5115696;28;20035;-73
2023/10/29 00:24:12;;;;;;;2.90;0.90;;;15.50;99.90;;;;;;5115888;28;20019;-73
2023/10/29 00:26:38;;;;;;;0.73;0.40;;;15.50;99.90;;;;;;5115255;28;20032;-72
2023/10/29 00:29:04;;;;;;;2.60;0.10;;;15.50;99.90;;;;;;5115719;28;20027;-72
2023/10/29 00:31:32;;;;;;;0.05;0.05;;;15.40;99.90;;;;;;5114119;28;20037;-73
2023/10/29 00:33:57;;;;;;;0.00;0.00;;;15.40;99.90;;;;;;5114422;28;20024;-72
2023/10/29 00:36:23;;;;;;;2.53;0.90;;;15.30;99.90;;;;;;5114308;28;20030;-72
2023/10/29 00:38:49;;;;;;;2.33;1.10;;;15.40;99.90;;;;;;5115239;28;20496;-74
2023/10/29 00:41:15;;;;;;;1.00;0.40;;;15.40;99.90;;;;;;5113917;28;20076;-72
2023/10/29 00:43:41;;;;;;;4.55;0.60;;;15.40;99.90;;;;;;5114076;28;20035;-72
2023/10/29 00:46:07;;;;;;;0.20;0.17;;;15.40;99.90;;;;;;5111445;28;20078;-73
2023/10/29 00:48:34;;;;;;;0.32;0.13;;;15.40;99.90;;;;;;5115247;28;20476;-73
2023/10/29 00:51:00;;;;;;;1.48;0.90;;;15.50;99.90;;;;;;5114087;28;20521;-72
2023/10/29 00:53:28;;;;;;;0.38;0.20;;;15.40;99.90;;;;;;5113480;28;20023;-73
2023/10/29 00:55:54;;;;;;;0.10;0.10;;;15.50;99.90;;;;;;5114002;28;20016;-72
2023/10/29 00:58:23;;;;;;;0.28;0.28;;;15.40;99.90;;;;;;5113602;28;20019;-72
2023/10/29 01:00:48;;;;;;;1.60;0.28;;;15.50;99.90;;;;;;5114027;28;20047;-73
2023/10/29 01:03:16;;;;;;;0.77;0.35;;;15.40;99.90;;;;;;5113412;28;20488;-72
2023/10/29 01:05:42;;;;;;;1.48;0.93;;;15.40;99.90;;;;;;5113760;28;20046;-72
2023/10/29 01:08:07;;;;;;;0.65;0.30;;;15.40;99.90;;;;;;5114508;28;20035;-72
2023/10/29 01:10:33;;;;;;;0.10;0.10;;;15.40;99.90;;;;;;5113575;28;20020;-72
2023/10/29 01:12:59;;;;;;;0.10;0.10;;;15.40;99.90;;;;;;5096380;28;20170;-73
2023/10/29 01:15:25;;;;;;;5.32;0.93;;;15.30;99.90;;;;;;5114630;28;20494;-72
2023/10/29 01:17:51;;;;;;;0.68;0.30;;;15.20;99.90;;;;;;5114758;28;20106;-72
2023/10/29 01:20:18;;;;;;;0.43;0.35;;;15.10;99.90;;;;;;5113133;28;20023;-73
2023/10/29 01:22:44;;;;;;;2.03;0.70;;;15.10;99.90;;;;;;5113249;28;20142;-72
2023/10/29 01:25:10;;;;;;;1.35;0.38;;;15.10;99.90;;;;;;5105456;28;20024;-72
2023/10/29 01:27:37;;;;;;;1.17;0.47;;;15.10;99.90;;;;;;5112999;28;20487;-72
2023/10/29 01:30:05;;;;;;;0.43;0.43;;;15.00;99.90;;;;;;5112007;28;20020;-72
2023/10/29 01:32:31;;;;;;;0.47;0.20;;;14.90;99.90;;;;;;5095152;28;20098;-72
2023/10/29 01:34:57;;;;;;;1.92;0.50;;;14.90;99.90;;;;;;5106971;28;20445;-72
2023/10/29 01:37:23;;;;;;;0.05;0.05;;;14.90;99.90;;;;;;5105972;28;20066;-73
2023/10/29 01:39:49;;;;;;;0.08;0.00;;;14.90;99.90;;;;;;5112782;28;20024;-72
2023/10/29 01:42:16;;;;;;;0.08;0.08;;;14.90;99.90;;;;;;5113019;28;20084;-72
2023/10/29 01:44:41;;;;;;;0.20;0.10;;;14.90;99.90;;;;;;5099490;28;20020;-73
2023/10/29 01:47:08;;;;;;;0.40;0.10;;;14.80;99.90;;;;;;5113741;28;20441;-72
2023/10/29 01:49:34;;;;;;;0.43;0.10;;;14.90;99.90;;;;;;5112395;28;20051;-75
2023/10/29 01:52:00;;;;;;;37.70;4.20;;;14.80;99.90;;;;;;5113778;28;20039;-73
2023/10/29 01:54:26;;;;;;;0.15;0.15;;;14.90;99.90;;;;;;5114055;28;20035;-74
2023/10/29 01:56:52;;;;;;;0.10;0.10;;;14.90;99.90;;;;;;5113968;28;20031;-72
2023/10/29 01:59:18;;;;;;;1.27;0.28;;;14.90;99.90;;;;;;5112421;28;20023;-74
2023/10/29 02:01:45;;;;;;;1.85;0.60;;;14.90;99.90;;;;;;5097945;28;20065;-72
2023/10/29 02:04:11;;;;;;;0.40;0.30;;;14.80;99.90;;;;;;5112497;28;20035;-72
2023/10/29 02:06:40;;;;;;;1.60;0.55;;;14.90;99.90;;;;;;5112020;28;20044;-74
2023/10/29 02:09:08;;;;;;;0.15;0.15;;;14.80;99.90;;;;;;5112415;28;20035;-73
2023/10/29 02:11:38;;;;;;;0.85;0.50;;;14.80;99.90;;;;;;5113680;28;20110;-75
2023/10/29 02:14:05;;;;;;;0.10;0.10;;;14.90;99.90;;;;;;5113782;28;20019;-73
2023/10/29 02:16:30;;;;;;;0.30;0.30;;;14.90;99.90;;;;;;5112501;28;20399;-73
2023/10/29 02:18:56;;;;;;;0.15;0.08;;;14.90;99.90;;;;;;5112047;28;20038;-72
2023/10/29 02:21:23;;;;;;;0.10;0.10;;;14.90;99.90;;;;;;5113393;28;20072;-73
2023/10/29 02:23:50;;;;;;;0.85;0.30;;;15.00;99.90;;;;;;5112030;28;20051;-74
2023/10/29 02:26:16;;;;;;;3.85;0.60;;;14.90;99.90;;;;;;5112208;28;20080;-75
2023/10/29 02:28:42;;;;;;;0.22;0.22;;;14.90;99.90;;;;;;5112119;28;20036;-74
2023/10/29 02:31:21;;;;;;;3.63;0.47;;;14.90;99.90;;;;;;5102767;28;20444;-72
2023/10/29 02:33:47;;;;;;;0.15;0.15;;;14.90;99.90;;;;;;5111838;28;20036;-73
2023/10/29 02:36:15;;;;;;;0.10;0.10;;;14.90;99.90;;;;;;5098948;28;20055;-73
2023/10/29 02:38:42;;;;;;;0.17;0.13;;;14.90;99.90;;;;;;5112112;28;20051;-72
2023/10/29 02:41:08;;;;;;;0.25;0.25;;;14.90;99.90;;;;;;5111971;28;20026;-72
2023/10/29 02:43:35;;;;;;;0.00;0.00;;;14.90;99.90;;;;;;5112278;28;20046;-72
2023/10/29 02:46:01;;;;;;;2.20;0.38;;;14.90;99.90;;;;;;5112835;28;20050;-72
2023/10/29 02:48:27;;;;;;;0.98;0.65;;;14.90;99.90;;;;;;5112062;28;20471;-71
2023/10/29 02:50:56;;;;;;;4.13;0.55;;;14.90;99.90;;;;;;5112623;28;20160;-72
2023/10/29 02:53:22;;;;;;;0.00;0.00;;;14.90;99.90;;;;;;5113191;28;20054;-72
2023/10/29 02:55:48;;;;;;;1.10;0.20;;;14.80;99.90;;;;;;5111767;28;20026;-72
2023/10/29 02:58:14;;;;;;;0.32;0.20;;;14.80;99.90;;;;;;5114711;28;20038;-72
2023/10/29 03:00:40;;;;;;;7.65;0.85;;;14.80;99.90;;;;;;5115758;28;20027;-71
2023/10/29 03:03:06;;;;;;;0.10;0.10;;;14.90;99.90;;;;;;5115805;28;20020;-71
2023/10/29 03:05:34;;;;;;;0.77;0.30;;;14.80;99.90;;;;;;5115692;28;20039;-71
2023/10/29 03:08:00;;;;;;;0.22;0.20;;;14.90;99.90;;;;;;5115729;28;20130;-72
2023/10/29 03:10:27;;;;;;;0.35;0.25;;;14.70;99.90;;;;;;5117349;28;20030;-71
2023/10/29 03:12:54;;;;;;;0.10;0.10;;;14.80;99.90;;;;;;5115840;28;20243;-71
2023/10/29 03:15:19;;;;;;;0.55;0.32;;;14.90;99.90;;;;;;5116964;28;20015;-71
2023/10/29 03:17:45;;;;;;;1.65;0.20;;;15.00;99.90;;;;;;5117362;28;20387;-71
2023/10/29 03:20:11;;;;;;;0.98;0.50;;;15.00;99.90;;;;;;5116637;28;20027;-71
2023/10/29 03:22:37;;;;;;;0.75;0.30;;;14.90;99.90;;;;;;5115631;28;20070;-71
2023/10/29 03:25:04;;;;;;;0.57;0.38;;;14.90;99.90;;;;;;5115571;28;20053;-71
2023/10/29 03:27:30;;;;;;;1.63;1.23;;;14.80;99.90;;;;;;5115469;28;20427;-72
2023/10/29 03:29:55;;;;;;;0.98;0.20;;;14.70;99.90;;;;;;5115465;28;20063;-71
2023/10/29 03:32:21;;;;;;;4.47;0.55;;;14.40;99.90;;;;;;5116419;28;20028;-71
2023/10/29 03:34:47;;;;;;;0.03;0.03;;;14.20;99.90;;;;;;5108127;28;20028;-72
2023/10/29 03:37:13;;;;;;;0.10;0.10;;;14.10;99.90;;;;;;5092074;28;20024;-72
2023/10/29 03:39:38;;;;;;;0.10;0.10;;;14.00;99.90;;;;;;5116563;28;20031;-72
2023/10/29 03:42:06;;;;;;;1.70;0.40;;;13.80;99.90;;;;;;5116401;28;20027;-72
2023/10/29 03:44:32;;;;;;;3.83;0.63;;;13.70;99.90;;;;;;5115076;28;20073;-72
2023/10/29 03:46:58;;;;;;;0.30;0.30;;;13.60;99.90;;;;;;5114951;28;20046;-72
2023/10/29 03:49:24;;;;;;;0.10;0.10;;;13.50;99.90;;;;;;5114728;28;20028;-72
2023/10/29 03:51:49;;;;;;;0.10;0.10;;;13.50;99.90;;;;;;5098044;28;20502;-72
2023/10/29 03:54:15;;;;;;;10.02;0.35;;;13.50;99.90;;;;;;5114983;28;20200;-72
2023/10/29 03:56:41;;;;;;;0.63;0.10;;;13.50;99.90;;;;;;5098005;28;20026;-72
2023/10/29 03:59:08;;;;;;;0.85;0.77;;;13.60;99.90;;;;;;5114940;28;20030;-72
2023/10/29 04:01:34;;;;;;;0.60;0.52;;;13.60;99.90;;;;;;5114588;28;20034;-72
2023/10/29 04:03:59;;;;;;;3.03;0.30;;;13.60;99.90;;;;;;5114653;28;20114;-73
2023/10/29 04:06:25;;;;;;;0.20;0.20;;;13.70;99.90;;;;;;5115873;28;20474;-73
2023/10/29 04:08:51;;;;;;;0.00;0.00;;;13.80;99.90;;;;;;5114344;28;20028;-72
2023/10/29 04:11:17;;;;;;;0.70;0.47;;;13.80;99.90;;;;;;5097595;28;20020;-72
2023/10/29 04:13:44;;;;;;;0.00;0.00;;;13.90;99.90;;;;;;5114875;28;20034;-72
2023/10/29 04:16:10;;;;;;;13.80;1.17;;;14.00;99.90;;;;;;5116069;28;20028;-72
2023/10/29 04:18:35;;;;;;;4.22;0.38;;;14.00;99.90;;;;;;5115488;28;20024;-72
2023/10/29 04:21:03;;;;;;;0.28;0.15;;;14.00;99.90;;;;;;5115906;28;20028;-72
2023/10/29 04:23:28;;;;;;;5.95;0.70;;;14.10;99.90;;;;;;5114440;28;20527;-72
2023/10/29 04:25:54;;;;;;;2.85;0.40;;;14.20;99.90;;;;;;5115728;28;20106;-72
2023/10/29 04:28:20;;;;;;;0.10;0.10;;;14.10;99.90;;;;;;5115504;28;20050;-72
2023/10/29 04:30:46;;;;;;;0.00;0.00;;;14.20;99.90;;;;;;5114459;28;20043;-72
2023/10/29 04:33:13;;;;;;;0.10;0.10;;;14.10;99.90;;;;;;5114140;28;20098;-72
2023/10/29 04:35:39;;;;;;;0.40;0.10;;;14.10;99.90;;;;;;5101115;28;20104;-72
2023/10/29 04:38:05;;;;;;;4.95;1.00;;;14.10;99.90;;;;;;5115240;28;20034;-72
2023/10/29 04:40:31;;;;;;;9.05;0.55;;;14.00;99.90;;;;;;5115609;28;20020;-73
2023/10/29 04:42:57;;;;;;;1.55;0.47;;;14.00;99.90;;;;;;5113648;28;20019;-72
2023/10/29 04:45:23;;;;;;;0.57;0.30;;;13.90;99.90;;;;;;5114938;28;20452;-72
2023/10/29 04:47:48;;;;;;;0.00;0.00;;;13.90;99.90;;;;;;5114838;28;20071;-72
2023/10/29 04:50:14;;;;;;;0.15;0.15;;;14.00;99.90;;;;;;5115258;28;20050;-72
2023/10/29 04:52:40;;;;;;;1.75;1.08;;;13.90;99.90;;;;;;5115088;28;20039;-72
2023/10/29 04:55:06;;;;;;;1.20;0.10;;;13.90;99.90;;;;;;5115223;28;20111;-72
2023/10/29 04:57:32;;;;;;;9.40;1.00;;;13.80;99.90;;;;;;5114957;28;20078;-72
2023/10/29 04:59:57;;;;;;;1.58;0.40;;;13.80;99.90;;;;;;5114783;28;20039;-72
2023/10/29 05:02:23;;;;;;;0.43;0.30;;;13.90;99.90;;;;;;5114825;28;20039;-72
2023/10/29 05:04:51;;;;;;;1.63;0.30;;;13.90;99.90;;;;;;5114948;28;20024;-73
2023/10/29 05:07:17;;;;;;;4.38;0.85;;;13.80;99.90;;;;;;5114832;28;20031;-72
2023/10/29 05:09:43;;;;;;;0.08;0.03;;;13.80;99.90;;;;;;5114672;28;20016;-72
2023/10/29 05:12:09;;;;;;;0.28;0.13;;;13.80;99.90;;;;;;5114728;28;20468;-72
2023/10/29 05:14:36;;;;;;;0.20;0.20;;;13.70;99.90;;;;;;5114584;28;20031;-72
2023/10/29 05:17:02;;;;;;;0.20;0.20;;;13.80;99.90;;;;;;5114479;28;20015;-72
2023/10/29 05:19:28;;;;;;;0.08;0.08;;;13.80;99.90;;;;;;5114854;28;20027;-72
2023/10/29 05:21:54;;;;;;;1.48;0.25;;;13.90;99.90;;;;;;5113944;28;20015;-71
2023/10/29 05:24:20;;;;;;;1.15;0.10;;;13.80;99.90;;;;;;5114594;28;20028;-72
2023/10/29 05:26:46;;;;;;;0.05;0.05;;;13.70;99.90;;;;;;5113207;28;20438;-72
2023/10/29 05:29:12;;;;;;;3.85;0.82;;;13.70;99.90;;;;;;5114232;28;20197;-72
2023/10/29 05:31:38;;;;;;;13.25;1.17;;;13.70;99.90;;;;;;5114267;28;20537;-72
2023/10/29 05:34:05;;;;;;;1.20;0.40;;;13.80;99.90;;;;;;5114344;28;20031;-72
2023/10/29 05:36:31;;;;;;;0.40;0.25;;;13.70;99.90;;;;;;5114544;28;20032;-73
2023/10/29 05:38:57;;;;;;;2.15;1.13;;;13.60;99.90;;;;;;5113995;28;20028;-72
2023/10/29 05:41:23;;;;;;;0.22;0.22;;;13.70;99.90;;;;;;5114387;28;20024;-72
2023/10/29 05:43:49;;;;;;;0.85;0.35;;;13.70;99.90;;;;;;5114131;28;20032;-75
2023/10/29 05:46:16;;;;;;;0.38;0.38;;;13.80;99.90;;;;;;5114005;28;20028;-72
2023/10/29 05:48:43;;;;;;;0.38;0.20;;;13.80;99.90;;;;;;5113149;28;20431;-75
2023/10/29 05:51:12;;;;;;;0.10;0.10;;;13.80;99.90;;;;;;5112807;28;20545;-71
2023/10/29 05:53:39;;;;;;;0.28;0.28;;;13.80;99.90;;;;;;5113826;28;20535;-75
2023/10/29 05:56:08;;;;;;;2.10;0.65;;;13.90;99.90;;;;;;5111797;28;20076;-72
2023/10/29 05:58:34;;;;;;;0.20;0.20;;;13.80;99.90;;;;;;5112021;27;20024;-72
2023/10/29 06:01:00;;;;;;;1.08;0.10;;;13.70;99.90;;;;;;5095014;28;20472;-72
2023/10/29 06:03:26;;;;;;;5.90;0.50;;;13.70;99.90;;;;;;5111675;27;20551;-71
2023/10/29 06:05:52;;;;;;;3.30;1.20;;;13.80;99.90;;;;;;5100462;27;20055;-72
2023/10/29 06:08:19;;;;;;;4.93;0.77;;;13.80;99.90;;;;;;5101032;27;20549;-71
2023/10/29 06:10:45;;;;;;;1.27;0.17;;;13.80;99.90;;;;;;5096741;27;20063;-72
2023/10/29 06:13:10;;;;;;;0.40;0.40;;;13.80;99.90;;;;;;5109141;27;20028;-72
2023/10/29 06:15:36;;;;;;;2.80;0.15;;;13.70;99.90;;;;;;5110785;27;20056;-72
2023/10/29 06:18:04;;;;;;;2.30;0.47;;;13.70;99.90;;;;;;5094892;27;20041;-71
2023/10/29 06:20:30;;;;;;;3.63;0.85;;;13.60;99.90;;;;;;5100034;27;20084;-71
2023/10/29 06:22:56;;;;;;;1.23;0.55;;;13.60;99.90;;;;;;5093762;27;20028;-71
2023/10/29 06:25:21;;;;;;;4.00;0.28;;;13.60;99.90;;;;;;5109638;27;20027;-71
2023/10/29 06:27:47;;;;;;;7.95;1.60;;;13.50;99.90;;;;;;5105233;27;20468;-72
2023/10/29 06:30:13;;;;;;;8.18;0.68;;;13.40;99.90;;;;;;5096033;28;20023;-71
2023/10/29 06:32:39;;;;;;;7.53;0.68;;;13.40;99.90;;;;;;5094685;28;20443;-71
2023/10/29 06:35:06;;;;;;;9.73;1.95;;;13.40;99.90;;;;;;5105890;27;20035;-71
2023/10/29 06:37:32;;;;;;;4.15;0.88;;;13.50;99.90;;;;;;5098211;27;20028;-72
2023/10/29 06:39:58;;;;;;;0.35;0.35;;;13.50;99.90;;;;;;5102392;27;20480;-71
2023/10/29 06:42:23;;;;;;;4.05;2.05;;;13.50;99.90;;;;;;5093227;28;20073;-71
2023/10/29 06:44:49;;;;;;;2.17;0.22;;;13.50;99.90;;;;;;5104599;27;20095;-72
2023/10/29 06:47:15;;;;;;;1.60;0.40;;;13.40;99.90;;;;;;5100422;27;20040;-72
2023/10/29 06:49:41;;;;;;;1.48;0.38;;;13.40;99.90;;;;;;5100274;28;20020;-72
2023/10/29 06:52:07;;;;;;;1.30;0.30;;;13.30;99.90;;;;;;5097956;27;20392;-71
2023/10/29 06:54:34;;;;;;;0.00;0.00;;;13.30;99.90;;;;;;5107984;28;20157;-72
2023/10/29 06:57:00;;;;;;;7.22;0.88;;;13.30;99.90;;;;;;5102053;28;20012;-71
2023/10/29 06:59:28;;;;;;;3.78;1.00;;;13.30;99.90;;;;;;5098705;28;20499;-72
2023/10/29 07:01:56;;;;;;;0.00;0.00;;;13.30;99.90;;;;;;5099497;28;20027;-71
2023/10/29 07:04:22;;;;;;;3.30;0.13;;;13.30;99.90;;;;;;5094480;28;20127;-71
2023/10/29 07:06:49;;;;;;;8.38;1.38;;;13.30;99.90;;;;;;5104899;28;20451;-71
2023/10/29 07:09:16;;;;;;;24.08;1.17;;;13.30;99.90;;;;;;5090578;28;20499;-71
2023/10/29 07:11:42;;;;;;;2.50;0.95;;;13.20;99.90;;;;;;5092018;28;20024;-74
2023/10/29 07:14:09;;;;;;;0.13;0.13;;;13.30;99.90;;;;;;5092229;28;20056;-72
2023/10/29 07:16:35;;;;;;;0.68;0.15;;;13.30;99.90;;;;;;5091408;28;20046;-72
2023/10/29 07:19:01;;;;;;;10.85;1.50;;;13.30;99.90;;;;;;5089760;28;20024;-73
2023/10/29 07:21:27;;;;;;;0.73;0.28;;;13.30;99.90;;;;;;5092083;28;20025;-72
2023/10/29 07:23:53;;;;;;;13.98;2.20;;;13.30;99.90;;;;;;5091506;28;20468;-73
2023/10/29 07:26:19;;;;;;;1.10;1.00;;;13.40;99.90;;;;;;5092089;28;20024;-73
2023/10/29 07:28:44;;;;;;;1.75;0.50;;;13.40;99.90;;;;;;5091872;28;20032;-73
2023/10/29 07:31:11;;;;;;;0.90;0.75;;;13.50;99.90;;;;;;5092181;28;20077;-74
2023/10/29 07:33:37;;;;;;;0.28;0.20;;;13.50;99.90;;;;;;5104593;28;20036;-72
2023/10/29 07:36:03;;;;;;;1.95;0.30;;;13.50;99.90;;;;;;5092969;28;20020;-73
2023/10/29 07:38:29;;;;;;;4.28;0.50;;;13.50;99.90;;;;;;5097025;28;20016;-73
2023/10/29 07:40:55;;;;;;;1.27;0.30;;;13.60;99.90;;;;;;5091691;28;20028;-74
2023/10/29 07:43:21;;;;;;;8.00;1.38;;;13.60;99.90;;;;;;5092220;28;20017;-72
2023/10/29 07:45:47;;;;;;;4.32;0.70;;;13.60;99.90;;;;;;5096026;28;20031;-72
2023/10/29 07:48:17;;;;;;;2.65;0.88;;;13.70;99.90;;;;;;5098341;28;20050;-73
2023/10/29 07:50:52;;;;;;;5.45;0.43;;;13.60;99.90;;;;;;5095852;28;20024;-72
2023/10/29 07:53:17;;;;;;;1.92;0.75;;;13.60;99.90;;;;;;5108202;27;20020;-73
2023/10/29 07:55:43;;;;;;;6.28;1.10;;;13.70;99.90;;;;;;5107056;27;20074;-72
2023/10/29 07:58:09;;;;;;;0.70;0.50;;;13.70;99.90;;;;;;5100426;27;20468;-72
2023/10/29 08:00:37;;;;;;;3.10;1.00;;;13.70;99.90;;;;;;5094627;28;20028;-73
2023/10/29 08:03:04;;;;;;;1.67;0.52;;;13.80;99.90;;;;;;5096873;27;20071;-71
2023/10/29 08:05:29;;;;;;;0.73;0.43;;;13.80;99.90;;;;;;5109215;27;20031;-71
2023/10/29 08:07:55;;;;;;;1.92;0.40;;;13.80;99.90;;;;;;5103238;27;20040;-71
2023/10/29 08:10:23;;;;;;;0.75;0.40;;;13.90;99.90;;;;;;5097459;27;20024;-72
2023/10/29 08:12:49;;;;;;;0.65;0.40;;;14.00;99.90;;;;;;5107226;27;20073;-71
2023/10/29 08:15:15;;;;;;;2.83;0.65;;;14.10;99.90;;;;;;5096424;27;20028;-71
2023/10/29 08:17:41;;;;;;;6.22;1.20;;;14.00;99.90;;;;;;5107120;27;20106;-71
2023/10/29 08:20:07;;;;;;;2.30;0.50;;;14.10;99.90;;;;;;5102442;27;20027;-71
2023/10/29 08:22:33;;;;;;;6.22;0.73;;;14.20;99.90;;;;;;5102918;27;20106;-71
2023/10/29 08:24:59;;;;;;;3.85;1.08;;;14.10;99.90;;;;;;5106590;27;20150;-71
2023/10/29 08:27:26;;;;;;;10.68;2.83;;;14.00;99.90;;;;;;5108111;27;20128;-71
2023/10/29 08:29:55;;;;;;;2.10;1.05;;;14.10;99.90;;;;;;5107082;27;20499;-71
2023/10/29 08:32:21;;;;;;;3.83;1.10;;;14.00;99.90;;;;;;5115893;27;20154;-71
2023/10/29 08:34:47;;;;;;;3.85;1.08;;;13.90;99.90;;;;;;5119911;27;20107;-71
2023/10/29 08:37:13;;;;;;;7.55;0.30;;;13.90;99.90;;;;;;5125969;27;20447;-71
2023/10/29 08:39:39;;;;;;;1.42;0.70;;;13.90;99.90;;;;;;5117280;27;20495;-71
2023/10/29 08:42:05;;;;;;;3.50;1.67;;;13.90;99.90;;;;;;5114742;28;20074;-71
2023/10/29 08:44:31;;;;;;;0.47;0.10;;;13.90;99.90;;;;;;5126676;27;20064;-71
2023/10/29 08:46:57;;;;;;;6.97;0.55;;;14.00;99.90;;;;;;5125769;27;20472;-72
2023/10/29 08:49:23;;;;;;;0.60;0.25;;;13.90;99.90;;;;;;5119864;27;20057;-71
2023/10/29 08:51:50;;;;;;;1.00;0.40;;;13.90;99.90;;;;;;5115880;27;20034;-71
2023/10/29 08:54:15;;;;;;;0.10;0.10;;;13.90;99.90;;;;;;5128134;27;20023;-72
2023/10/29 08:56:41;;;;;;;1.30;0.25;;;13.90;99.90;;;;;;5125009;27;20502;-71
2023/10/29 08:59:09;;;;;;;1.25;0.63;;;14.00;99.90;;;;;;5124852;27;20103;-71
2023/10/29 09:01:35;;;;;;;1.80;0.60;;;14.00;99.90;;;;;;5117590;27;20032;-72
2023/10/29 09:04:01;;;;;;;0.52;0.47;;;14.00;99.90;;;;;;5114060;27;20046;-72
2023/10/29 09:06:28;;;;;;;7.57;0.85;;;14.10;99.90;;;;;;5112535;28;20226;-72
2023/10/29 09:08:54;;;;;;;0.20;0.20;;;14.10;99.90;;;;;;5112670;28;20039;-72
2023/10/29 09:11:20;;;;;;;6.72;0.95;;;14.10;99.90;;;;;;5114638;28;20028;-72
2023/10/29 09:13:45;;;;;;;2.45;1.10;;;13.90;99.90;;;;;;5112282;28;20032;-71
2023/10/29 09:16:11;;;;;;;6.35;0.50;;;13.90;99.90;;;;;;5113731;28;20027;-71
2023/10/29 09:18:37;;;;;;;0.30;0.10;;;14.00;99.90;;;;;;5114619;28;20458;-71
2023/10/29 09:21:04;;;;;;;3.45;0.85;;;14.20;99.90;;;;;;5113263;28;20020;-71
2023/10/29 09:23:30;;;;;;;0.10;0.10;;;14.20;99.90;;;;;;5114477;28;20081;-71
2023/10/29 09:25:57;;;;;;;9.52;0.35;;;14.10;99.90;;;;;;5113852;28;20471;-71
2023/10/29 09:28:23;;;;;;;3.70;1.17;;;14.30;99.90;;;;;;5114027;28;20054;-71
2023/10/29 09:30:49;;;;;;;0.00;0.00;;;14.40;99.90;;;;;;5114030;28;20020;-71
2023/10/29 09:33:15;;;;;;;0.17;0.17;;;14.20;99.90;;;;;;5104715;28;20036;-72
2023/10/29 09:35:42;;;;;;;5.32;0.95;;;14.30;99.90;;;;;;5109372;28;20486;-71
2023/10/29 09:38:08;;;;;;;0.85;0.73;;;14.20;99.90;;;;;;5113293;28;20164;-71
2023/10/29 09:40:35;;;;;;;5.57;1.48;;;14.20;99.90;;;;;;5112894;28;20523;-71
2023/10/29 09:43:08;;;;;;;5.07;0.80;;;14.20;99.90;;;;;;5114210;28;20107;-71
2023/10/29 09:45:38;;;;;;;0.35;0.20;;;14.30;99.90;;;;;;5101181;28;20483;-71
2023/10/29 09:48:04;;;;;;;1.48;0.32;;;14.40;99.90;;;;;;5096228;28;20032;-71
2023/10/29 09:50:30;;;;;;;0.38;0.38;;;14.30;99.90;;;;;;5093580;28;20047;-72
2023/10/29 09:52:58;;;;;;;2.03;0.65;;;14.40;99.90;;;;;;5098486;28;20035;-72
2023/10/29 09:55:24;;;;;;;1.80;0.73;;;14.40;99.90;;;;;;5093239;28;20602;-72
2023/10/29 09:57:52;;;;;;;10.10;0.90;;;14.40;99.90;;;;;;5100472;28;20035;-72
2023/10/29 10:00:18;;;;;;;1.17;0.57;;;14.40;99.90;;;;;;5092894;28;20019;-71
2023/10/29 10:02:57;;;;;;;1.65;1.17;;;14.30;99.90;;;;;;5098597;28;20052;-72
2023/10/29 10:05:25;;;;;;;4.75;1.10;;;14.50;99.90;;;;;;5092910;28;20111;-72
2023/10/29 10:07:57;;;;;;;0.52;0.38;;;14.30;99.90;;;;;;5090264;28;20044;-71
2023/10/29 10:10:42;;;;;;;0.00;0.00;;;14.30;99.90;;;;;;5093460;28;20470;-72
2023/10/29 10:13:09;;;;;;;1.65;0.70;;;14.30;99.90;;;;;;5092009;28;20380;-72
2023/10/29 10:15:38;;;;;;;5.97;1.65;;;14.30;99.90;;;;;;5103838;27;20034;-72
2023/10/29 10:18:05;;;;;;;0.20;0.20;;;14.30;99.90;;;;;;5094128;28;20028;-72
2023/10/29 10:20:32;;;;;;;0.40;0.30;;;14.30;99.90;;;;;;5091355;28;20024;-71
2023/10/29 10:23:00;;;;;;;2.80;0.50;;;14.20;99.90;;;;;;5091510;28;20085;-71
2023/10/29 10:25:28;;;;;;;6.22;0.73;;;14.20;99.90;;;;;;5092404;28;20024;-71
2023/10/29 10:27:56;;;;;;;4.15;0.52;;;14.20;99.90;;;;;;5093035;28;20032;-71
2023/10/29 10:30:28;;;;;;;6.78;1.58;;;14.30;99.90;;;;;;5092945;28;20034;-71
2023/10/29 10:33:08;;;;;;;14.60;1.88;;;14.20;99.90;;;;;;5091668;28;20047;-71
2023/10/29 10:35:51;;;;;;;7.22;0.95;;;14.20;99.90;;;;;;5106201;28;20028;-72
2023/10/29 10:38:25;;;;;;;0.00;0.00;;;14.10;99.90;;;;;;5113455;28;20032;-71
2023/10/29 10:40:58;;;;;;;0.73;0.50;;;14.10;99.90;;;;;;5113004;28;20472;-71
2023/10/29 10:43:26;;;;;;;1.38;0.88;;;14.10;99.90;;;;;;5113237;28;20489;-71
2023/10/29 10:45:54;;;;;;;5.18;0.93;;;14.10;99.90;;;;;;5112999;28;20106;-72
2023/10/29 10:48:20;;;;;;;14.23;0.82;;;14.10;99.90;;;;;;5112989;28;20104;-71
2023/10/29 10:50:46;;;;;;;0.88;0.60;;;14.10;99.90;;;;;;5113064;28;20102;-71
2023/10/29 10:53:16;;;;;;;0.95;0.40;;;14.10;99.90;;;;;;5113061;28;20135;-72
2023/10/29 10:55:44;;;;;;;14.70;1.55;;;14.20;99.90;;;;;;5112800;28;20028;-71
2023/10/29 10:58:13;;;;;;;5.80;1.17;;;14.20;99.90;;;;;;5113140;28;20045;-71
2023/10/29 11:00:38;;;;;;;0.20;0.10;;;14.10;99.90;;;;;;5113070;28;20024;-71
2023/10/29 11:03:05;;;;;;;1.42;0.22;;;14.10;99.90;;;;;;5111460;28;20130;-72
2023/10/29 11:05:33;;;;;;;0.05;0.05;;;14.10;99.90;;;;;;5113174;28;20026;-71
2023/10/29 11:08:00;;;;;;;1.45;0.20;;;14.20;99.90;;;;;;5112880;28;20103;-71
2023/10/29 11:10:26;;;;;;;2.03;1.55;;;14.20;99.90;;;;;;5111720;28;20026;-71
2023/10/29 11:12:52;;;;;;;0.00;0.00;;;14.30;99.90;;;;;;5112941;28;20024;-71
2023/10/29 11:15:20;;;;;;;10.98;0.90;;;14.40;99.90;;;;;;5112848;28;20061;-71
2023/10/29 11:17:54;;;;;;;0.85;0.43;;;14.40;99.90;;;;;;5112742;28;20610;-72
2023/10/29 11:20:56;;;;;;;4.90;1.23;;;14.80;99.90;;;;;;5116272;28;20019;-71
2023/10/29 11:23:24;;;;;;;6.03;0.45;;;15.00;99.90;;;;;;5116442;28;20047;-71
2023/10/29 11:25:50;;;;;;;0.82;0.77;;;15.30;99.90;;;;;;5116842;28;20050;-71
2023/10/29 11:28:26;;;;;;;14.40;1.85;;;15.70;99.90;;;;;;5116845;28;20122;-71
2023/10/29 11:31:10;;;;;;;5.35;0.57;;;15.70;99.90;;;;;;5115358;28;20172;-72
2023/10/29 11:33:36;;;;;;;3.28;0.43;;;15.60;99.90;;;;;;5104243;28;20078;-71
2023/10/29 11:36:31;;;;;;;11.73;0.77;;;15.30;99.90;;;;;;5114832;28;20440;-71
2023/10/29 11:39:28;;;;;;;0.80;0.40;;;15.10;99.90;;;;;;5116503;28;20039;-71
2023/10/29 11:41:55;;;;;;;0.00;0.00;;;15.00;99.90;;;;;;5113125;27;20032;-72
2023/10/29 11:44:23;;;;;;;2.05;0.93;;;14.90;99.90;;;;;;5116563;28;20522;-71
2023/10/29 11:46:58;;;;;;;0.55;0.50;;;15.00;99.90;;;;;;5115965;28;20057;-71
2023/10/29 11:49:25;;;;;;;8.70;1.77;;;14.90;99.90;;;;;;5116446;28;20495;-71
2023/10/29 11:51:56;;;;;;;0.17;0.17;;;14.90;99.90;;;;;;5114887;28;20403;-71
2023/10/29 11:54:22;;;;;;;4.47;0.85;;;14.90;99.90;;;;;;5116345;28;20111;-71
2023/10/29 11:56:51;;;;;;;1.65;0.40;;;14.90;99.90;;;;;;5115869;28;20019;-71
2023/10/29 11:59:17;;;;;;;0.50;0.28;;;14.90;99.90;;;;;;5116550;28;20024;-71
2023/10/29 12:01:43;;;;;;;1.73;0.70;;;14.80;99.90;;;;;;5115490;28;20111;-72
2023/10/29 12:04:10;;;;;;;0.65;0.65;;;14.90;99.90;;;;;;5116151;28;20095;-71
2023/10/29 12:06:45;;;;;;;1.65;0.13;;;14.90;99.90;;;;;;5115862;28;20165;-71
2023/10/29 12:09:16;;;;;;;0.57;0.43;;;14.80;99.90;;;;;;5114804;28;20039;-71
2023/10/29 12:11:41;;;;;;;0.55;0.35;;;14.70;99.90;;;;;;5114701;28;20062;-71
2023/10/29 12:14:07;;;;;;;0.77;0.60;;;14.60;99.90;;;;;;5116112;28;20061;-71
2023/10/29 12:16:34;;;;;;;4.50;1.52;;;14.40;99.90;;;;;;5115472;28;20118;-72
2023/10/29 12:19:00;;;;;;;3.17;0.40;;;14.30;99.90;;;;;;5115769;28;20072;-72
2023/10/29 12:21:25;;;;;;;4.57;0.70;;;14.30;99.90;;;;;;5114694;28;20024;-72
2023/10/29 12:23:51;;;;;;;0.35;0.35;;;14.20;99.90;;;;;;5115766;28;20028;-72
2023/10/29 12:26:18;;;;;;;0.52;0.52;;;14.20;99.90;;;;;;5114612;28;20032;-72
2023/10/29 12:28:46;;;;;;;9.45;0.30;;;14.30;99.90;;;;;;5114326;28;20038;-72
2023/10/29 12:31:24;;;;;;;7.28;0.75;;;14.20;99.90;;;;;;5114824;28;20020;-72
2023/10/29 12:33:57;;;;;;;0.05;0.05;;;14.30;99.90;;;;;;5099811;28;20040;-72
2023/10/29 12:36:24;;;;;;;5.90;1.92;;;14.20;99.90;;;;;;5113453;28;20030;-72
2023/10/29 12:38:50;;;;;;;3.28;1.05;;;14.10;99.90;;;;;;5113369;28;20058;-72
2023/10/29 12:41:16;;;;;;;8.73;1.92;;;14.00;99.90;;;;;;5115138;28;20020;-72
2023/10/29 12:43:45;;;;;;;0.00;0.00;;;13.90;99.90;;;;;;5115435;27;20032;-74
2023/10/29 12:46:12;;;;;;;5.00;1.00;;;13.80;99.90;;;;;;5114777;28;20102;-72